createdAt,value
2018-03-24T00:01:22.925Z,160.55
2018-03-24T00:03:50.574Z,113.97
2018-03-24T00:06:18.110Z,109.97
2018-03-24T00:08:46.417Z,70.05
2018-03-24T00:11:14.078Z,77.80
2018-03-24T00:13:41.618Z,70.93
2018-03-24T00:16:10.219Z,66.15
2018-03-24T00:18:37.774Z,119.72
2018-03-24T00:21:05.342Z,70.47
2018-03-24T00:23:33.653Z,60.20
2018-03-24T00:26:01.191Z,62.72
2018-03-24T00:28:29.534Z,138.12
2018-03-24T00:30:57.065Z,92.50
2018-03-24T00:33:24.612Z,106.28
2018-03-24T00:35:52.152Z,52.95
2018-03-24T00:38:19.704Z,129.05
2018-03-24T00:40:47.315Z,86.43
2018-03-24T00:43:14.855Z,81.28
2018-03-24T00:45:43.197Z,55.72
2018-03-24T00:48:10.736Z,98.65
2018-03-24T00:50:38.264Z,72.82
2018-03-24T00:53:05.817Z,78.10
2018-03-24T00:55:33.353Z,64.30
2018-03-24T00:58:00.904Z,72.47
2018-03-24T01:00:28.441Z,64.05
2018-03-24T01:02:56.755Z,66.30
2018-03-24T01:05:24.315Z,60.72
2018-03-24T01:07:51.881Z,65.32
2018-03-24T01:10:19.417Z,54.22
2018-03-24T01:12:47.683Z,38.13
2018-03-24T01:15:16.004Z,40.50
2018-03-24T01:17:43.869Z,41.05
2018-03-24T01:20:11.420Z,40.45
2018-03-24T01:22:39.716Z,39.25
2018-03-24T01:25:07.273Z,35.10
2018-03-24T01:27:35.652Z,35.47
2018-03-24T01:30:03.969Z,38.33
2018-03-24T01:32:31.492Z,35.47
2018-03-24T01:34:59.822Z,40.67
2018-03-24T01:37:27.348Z,34.22
2018-03-24T01:39:55.649Z,38.92
2018-03-24T01:42:23.220Z,35.92
2018-03-24T01:44:50.759Z,38.55
2018-03-24T01:47:19.075Z,34.60
2018-03-24T01:49:46.614Z,37.70
2018-03-24T01:52:15.020Z,59.15
2018-03-24T01:54:42.588Z,90.53
2018-03-24T01:57:10.146Z,185.68
2018-03-24T01:59:37.680Z,131.95
2018-03-24T02:02:05.228Z,157.02
2018-03-24T02:04:32.772Z,159.90
2018-03-24T02:07:00.324Z,178.25
2018-03-24T02:09:27.931Z,173.87
2018-03-24T02:11:55.523Z,140.25
2018-03-24T02:14:23.830Z,281.20
2018-03-24T02:16:51.379Z,115.65
2018-03-24T02:19:18.940Z,194.55
2018-03-24T02:21:46.478Z,122.93
2018-03-24T02:24:14.013Z,279.42
2018-03-24T02:26:41.551Z,241.85
2018-03-24T02:29:09.098Z,203.37
2018-03-24T02:31:36.732Z,85.38
2018-03-24T02:34:04.280Z,81.22
2018-03-24T02:36:31.899Z,46.33
2018-03-24T02:39:00.207Z,48.35
2018-03-24T02:41:27.761Z,42.33
2018-03-24T02:43:55.317Z,45.47
2018-03-24T02:46:22.856Z,45.17
2018-03-24T02:48:51.248Z,53.03
2018-03-24T02:51:19.551Z,205.90
2018-03-24T02:53:47.098Z,127.15
2018-03-24T02:56:15.417Z,133.27
2018-03-24T02:58:42.969Z,242.45
2018-03-24T03:01:10.508Z,77.97
2018-03-24T03:03:38.803Z,204.25
2018-03-24T03:06:07.102Z,206.38
2018-03-24T03:08:34.666Z,124.47
2018-03-24T03:11:02.199Z,63.92
2018-03-24T03:13:29.751Z,115.55
2018-03-24T03:15:57.290Z,109.68
2018-03-24T03:18:24.830Z,157.55
2018-03-24T03:20:52.418Z,72.03
2018-03-24T03:23:20.060Z,61.63
2018-03-24T03:25:47.601Z,83.30
2018-03-24T03:28:15.898Z,42.78
2018-03-24T03:30:47.025Z,57.15
2018-03-24T03:33:14.549Z,57.97
2018-03-24T03:35:42.094Z,143.13
2018-03-24T03:38:09.670Z,52.83
2018-03-24T03:40:37.205Z,59.78
2018-03-24T03:43:04.743Z,54.15
2018-03-24T03:45:32.269Z,85.25
2018-03-24T03:47:59.814Z,65.43
2018-03-24T03:50:27.368Z,58.70
2018-03-24T03:52:54.925Z,60.00
2018-03-24T03:55:22.465Z,62.80
2018-03-24T03:57:49.984Z,64.57
2018-03-24T04:00:17.616Z,64.43
2018-03-24T04:02:46.212Z,73.53
2018-03-24T04:05:14.508Z,58.45
2018-03-24T04:07:42.078Z,64.57
2018-03-24T04:10:09.635Z,85.78
2018-03-24T04:12:37.263Z,95.82
2018-03-24T04:15:04.825Z,89.72
2018-03-24T04:17:32.380Z,150.50
2018-03-24T04:19:59.902Z,99.78
2018-03-24T04:22:27.450Z,211.50
2018-03-24T04:24:55.758Z,139.82
2018-03-24T04:27:23.312Z,95.57
2018-03-24T04:29:50.838Z,94.80
2018-03-24T04:32:18.417Z,101.82
2018-03-24T04:34:46.717Z,77.85
2018-03-24T04:37:15.021Z,152.32
2018-03-24T04:39:42.586Z,90.03
2018-03-24T04:42:10.128Z,95.03
2018-03-24T04:44:38.442Z,108.65
2018-03-24T04:47:05.989Z,77.07
2018-03-24T04:49:33.530Z,123.72
2018-03-24T04:52:01.974Z,172.73
2018-03-24T04:54:29.526Z,169.45
2018-03-24T04:56:57.091Z,66.90
2018-03-24T04:59:24.647Z,210.13
2018-03-24T05:01:52.249Z,179.43
2018-03-24T05:04:19.804Z,185.15
2018-03-24T05:06:47.354Z,139.80
2018-03-24T05:09:14.907Z,193.30
2018-03-24T05:11:42.440Z,133.55
2018-03-24T05:14:10.757Z,245.45
2018-03-24T05:16:38.340Z,256.80
2018-03-24T05:19:05.886Z,154.18
2018-03-24T05:21:33.442Z,190.85
2018-03-24T05:24:01.002Z,246.27
2018-03-24T05:26:29.296Z,213.70
2018-03-24T05:28:56.849Z,286.33
2018-03-24T05:31:24.388Z,97.00
2018-03-24T05:33:51.931Z,90.95
2018-03-24T05:36:19.480Z,160.32
2018-03-24T05:38:47.028Z,81.63
2018-03-24T05:41:14.578Z,99.93
2018-03-24T05:43:42.090Z,101.75
2018-03-24T05:46:09.638Z,116.93
2018-03-24T05:48:37.493Z,144.77
2018-03-24T05:51:04.948Z,87.10
2018-03-24T05:53:33.391Z,81.95
2018-03-24T05:56:00.928Z,97.00
2018-03-24T05:58:28.470Z,92.50
2018-03-24T06:00:56.012Z,82.18
2018-03-24T06:03:24.363Z,93.40
2018-03-24T06:05:52.180Z,76.12
2018-03-24T06:08:19.722Z,75.85
2018-03-24T06:10:48.033Z,79.80
2018-03-24T06:13:15.570Z,74.68
2018-03-24T06:15:43.876Z,79.40
2018-03-24T06:18:11.443Z,81.57
2018-03-24T06:20:38.982Z,80.57
2018-03-24T06:23:07.281Z,83.50
2018-03-24T06:25:34.821Z,81.57
2018-03-24T06:28:02.366Z,79.40
2018-03-24T06:30:45.709Z,78.00
2018-03-24T06:33:13.252Z,73.60
2018-03-24T06:35:40.929Z,72.47
2018-03-24T06:38:08.486Z,83.90
2018-03-24T06:40:36.028Z,70.25
2018-03-24T06:43:03.617Z,69.20
2018-03-24T06:45:31.150Z,67.07
2018-03-24T06:47:58.716Z,70.03
2018-03-24T06:50:26.245Z,63.10
2018-03-24T06:52:54.554Z,67.10
2018-03-24T06:55:22.171Z,65.97
2018-03-24T06:57:49.844Z,60.40
2018-03-24T07:00:17.403Z,63.13
2018-03-24T07:02:44.934Z,63.92
2018-03-24T07:05:12.505Z,63.33
2018-03-24T07:07:40.374Z,61.17
2018-03-24T07:10:07.881Z,61.53
2018-03-24T07:12:35.447Z,57.10
2018-03-24T07:15:03.015Z,80.50
2018-03-24T07:17:30.664Z,330.87
2018-03-24T07:19:58.235Z,67.55
2018-03-24T07:22:26.542Z,60.90
2018-03-24T07:24:54.940Z,58.60
2018-03-24T07:27:23.260Z,55.47
2018-03-24T07:29:50.790Z,55.38
2018-03-24T07:32:18.355Z,58.08
2018-03-24T07:34:46.675Z,58.45
2018-03-24T07:37:14.327Z,58.80
2018-03-24T07:39:41.880Z,59.95
2018-03-24T07:42:09.411Z,58.40
2018-03-24T07:44:37.019Z,57.70
2018-03-24T07:47:04.543Z,56.63
2018-03-24T07:49:32.089Z,56.60
2018-03-24T07:51:59.644Z,56.45
2018-03-24T07:54:27.182Z,55.22
2018-03-24T07:56:54.757Z,60.50
2018-03-24T07:59:22.286Z,59.45
2018-03-24T08:01:50.592Z,59.97
2018-03-24T08:04:18.166Z,58.83
2018-03-24T08:06:45.710Z,60.28
2018-03-24T08:09:14.023Z,61.72
2018-03-24T08:11:41.560Z,62.17
2018-03-24T08:14:09.853Z,60.85
2018-03-24T08:16:37.403Z,66.80
2018-03-24T08:19:05.692Z,65.12
2018-03-24T08:21:33.531Z,66.07
2018-03-24T08:24:01.067Z,63.33
2018-03-24T08:26:28.590Z,61.60
2018-03-24T08:28:56.153Z,60.42
2018-03-24T08:31:24.605Z,65.97
2018-03-24T08:33:52.158Z,64.20
2018-03-24T08:36:19.729Z,59.88
2018-03-24T08:38:47.281Z,60.72
2018-03-24T08:41:14.867Z,60.20
2018-03-24T08:43:42.417Z,59.88
2018-03-24T08:46:09.973Z,59.53
2018-03-24T08:48:37.518Z,57.83
2018-03-24T08:51:05.053Z,58.47
2018-03-24T08:53:33.380Z,61.58
2018-03-24T08:56:00.932Z,55.15
2018-03-24T08:58:28.498Z,53.00
2018-03-24T09:00:56.075Z,53.05
2018-03-24T09:03:24.598Z,52.60
2018-03-24T09:05:52.125Z,54.75
2018-03-24T09:08:19.695Z,52.95
2018-03-24T09:10:47.249Z,59.53
2018-03-24T09:13:14.808Z,53.50
2018-03-24T09:15:42.358Z,49.78
2018-03-24T09:18:10.665Z,50.45
2018-03-24T09:20:38.252Z,48.63
2018-03-24T09:23:06.081Z,48.00
2018-03-24T09:25:33.690Z,49.22
2018-03-24T09:28:01.333Z,49.45
2018-03-24T09:30:28.794Z,46.78
2018-03-24T09:32:57.391Z,49.05
2018-03-24T09:35:27.918Z,52.50
2018-03-24T09:37:55.448Z,46.40
2018-03-24T09:40:23.781Z,45.33
2018-03-24T09:42:51.430Z,42.70
2018-03-24T09:45:18.979Z,44.03
2018-03-24T09:47:46.565Z,41.72
2018-03-24T09:50:14.188Z,41.45
2018-03-24T09:52:41.808Z,44.88
2018-03-24T09:55:10.079Z,47.08
2018-03-24T09:57:37.623Z,45.87
2018-03-24T10:00:05.968Z,44.60
2018-03-24T10:02:33.506Z,41.63
2018-03-24T10:05:01.056Z,41.22
2018-03-24T10:07:28.587Z,40.63
2018-03-24T10:09:57.726Z,40.80
2018-03-24T10:12:25.294Z,37.13
2018-03-24T10:14:52.829Z,36.57
2018-03-24T10:17:21.145Z,33.73
2018-03-24T10:19:48.687Z,36.00
2018-03-24T10:22:43.649Z,32.13
2018-03-24T10:25:11.237Z,36.80
2018-03-24T10:27:39.544Z,33.43
2018-03-24T10:30:07.104Z,31.80
2018-03-24T10:32:34.876Z,33.23
2018-03-24T10:35:06.877Z,26.70
2018-03-24T10:37:40.042Z,27.63
2018-03-24T10:40:07.624Z,27.73
2018-03-24T10:42:35.155Z,27.73
2018-03-24T10:45:02.703Z,26.57
2018-03-24T10:47:31.014Z,26.50
2018-03-24T10:49:58.611Z,24.93
2018-03-24T10:52:26.175Z,19.03
2018-03-24T10:54:53.719Z,17.20
2018-03-24T10:57:21.263Z,17.30
2018-03-24T10:59:48.804Z,15.50
2018-03-24T11:02:16.344Z,10.87
2018-03-24T11:04:43.873Z,11.57
2018-03-24T11:07:11.422Z,12.90
2018-03-24T11:09:39.756Z,13.20
2018-03-24T11:12:07.338Z,12.00
2018-03-24T11:14:34.896Z,10.27
2018-03-24T11:17:02.445Z,12.80
2018-03-24T11:19:30.321Z,13.00
2018-03-24T11:21:57.874Z,11.20
2018-03-24T11:24:25.419Z,13.23
2018-03-24T11:26:52.928Z,11.70
2018-03-24T11:29:20.500Z,15.10
2018-03-24T11:31:48.062Z,11.77
2018-03-24T11:34:15.975Z,11.53
2018-03-24T11:36:44.299Z,11.13
2018-03-24T11:39:11.840Z,11.23
2018-03-24T11:41:39.390Z,12.27
2018-03-24T11:44:06.940Z,10.57
2018-03-24T11:46:35.282Z,12.53
2018-03-24T11:49:02.837Z,12.50
2018-03-24T11:51:30.374Z,11.93
2018-03-24T11:53:57.918Z,12.33
2018-03-24T11:56:26.293Z,13.70
2018-03-24T11:58:53.871Z,12.47
2018-03-24T12:01:22.190Z,13.40
2018-03-24T12:03:49.753Z,14.03
2018-03-24T12:06:17.282Z,12.23
2018-03-24T12:08:45.653Z,11.30
2018-03-24T12:11:13.165Z,11.70
2018-03-24T12:13:40.727Z,11.03
2018-03-24T12:16:08.280Z,12.97
2018-03-24T12:18:36.020Z,38.77
2018-03-24T12:21:03.561Z,20.60
2018-03-24T12:23:31.913Z,272.30
2018-03-24T12:25:59.471Z,12.60
2018-03-24T12:28:27.015Z,11.97
2018-03-24T12:30:55.319Z,13.27
2018-03-24T12:33:22.881Z,11.97
2018-03-24T12:35:50.759Z,12.03
2018-03-24T12:38:18.292Z,11.30
2018-03-24T12:40:46.617Z,11.30
2018-03-24T12:43:14.281Z,12.00
2018-03-24T12:45:41.809Z,11.57
2018-03-24T12:48:10.642Z,12.43
2018-03-24T12:50:38.232Z,12.37
2018-03-24T12:53:05.794Z,12.23
2018-03-24T12:55:33.330Z,11.37
2018-03-24T12:58:00.881Z,11.00
2018-03-24T13:00:29.244Z,11.20
2018-03-24T13:02:56.720Z,9.60
2018-03-24T13:05:25.041Z,12.20
2018-03-24T13:07:52.566Z,10.43
2018-03-24T13:10:20.878Z,10.30
2018-03-24T13:12:48.733Z,10.60
2018-03-24T13:15:17.036Z,10.43
2018-03-24T13:17:44.578Z,9.67
2018-03-24T13:20:12.125Z,9.00
2018-03-24T13:22:39.671Z,9.43
2018-03-24T13:25:07.280Z,9.90
2018-03-24T13:27:35.581Z,9.60
2018-03-24T13:30:03.133Z,9.33
2018-03-24T13:32:30.674Z,10.27
2018-03-24T13:34:59.002Z,9.37
2018-03-24T13:37:30.576Z,9.97
2018-03-24T13:39:58.118Z,9.37
2018-03-24T13:42:26.490Z,8.70
2018-03-24T13:44:54.017Z,9.93
2018-03-24T13:47:21.556Z,10.07
2018-03-24T13:49:49.141Z,10.43
2018-03-24T13:52:16.676Z,8.90
2018-03-24T13:54:44.226Z,9.20
2018-03-24T13:57:11.899Z,10.07
2018-03-24T13:59:39.433Z,12.00
2018-03-24T14:02:07.770Z,10.30
2018-03-24T14:04:35.336Z,9.83
2018-03-24T14:07:02.899Z,11.47
2018-03-24T14:09:30.442Z,11.50
2018-03-24T14:11:58.001Z,10.20
2018-03-24T14:14:25.587Z,10.17
2018-03-24T14:16:53.127Z,9.10
2018-03-24T14:19:20.673Z,11.33
2018-03-24T14:21:48.983Z,10.53
2018-03-24T14:24:16.520Z,8.87
2018-03-24T14:26:45.260Z,8.27
2018-03-24T14:29:12.804Z,8.90
2018-03-24T14:31:40.354Z,9.77
2018-03-24T14:34:08.716Z,10.97
2018-03-24T14:36:36.257Z,11.37
2018-03-24T14:39:03.790Z,11.57
2018-03-24T14:41:31.455Z,11.53
2018-03-24T14:43:59.297Z,12.40
2018-03-24T14:46:27.609Z,10.60
2018-03-24T14:48:55.275Z,10.67
2018-03-24T14:51:22.835Z,10.80
2018-03-24T14:53:50.384Z,10.00
2018-03-24T14:56:18.729Z,9.57
2018-03-24T14:58:47.036Z,11.93
2018-03-24T15:01:14.578Z,13.27
2018-03-24T15:03:42.166Z,13.63
2018-03-24T15:06:09.709Z,12.13
2018-03-24T15:08:37.259Z,11.27
2018-03-24T15:11:04.788Z,13.10
2018-03-24T15:13:32.347Z,10.50
2018-03-24T15:16:00.747Z,21.83
2018-03-24T15:18:28.299Z,14.30
2018-03-24T15:20:56.752Z,12.63
2018-03-24T15:23:25.107Z,12.17
2018-03-24T15:25:52.658Z,17.40
2018-03-24T15:28:20.243Z,13.73
2018-03-24T15:31:11.569Z,14.27
2018-03-24T15:33:51.048Z,16.57
2018-03-24T15:36:30.432Z,14.10
2018-03-24T15:38:58.009Z,28.30
2018-03-24T15:41:25.571Z,17.63
2018-03-24T15:43:53.213Z,16.57
2018-03-24T15:46:20.775Z,18.13
2018-03-24T15:48:48.360Z,16.70
2018-03-24T15:51:16.704Z,20.77
2018-03-24T15:53:44.252Z,16.00
2018-03-24T15:56:12.561Z,17.77
2018-03-24T15:58:40.275Z,14.83
2018-03-24T16:01:07.816Z,15.17
2018-03-24T16:03:35.397Z,15.00
2018-03-24T16:06:03.055Z,16.80
2018-03-24T16:08:30.618Z,17.43
2018-03-24T16:10:58.180Z,17.20
2018-03-24T16:13:25.729Z,16.57
2018-03-24T16:15:53.628Z,17.07
2018-03-24T16:18:21.187Z,18.57
2018-03-24T16:20:48.738Z,16.20
2018-03-24T16:23:16.276Z,16.23
2018-03-24T16:25:44.579Z,17.43
2018-03-24T16:28:12.170Z,17.63
2018-03-24T16:30:39.797Z,22.43
2018-03-24T16:33:08.241Z,21.23
2018-03-24T16:35:35.815Z,22.37
2018-03-24T16:38:03.362Z,21.10
2018-03-24T16:40:30.944Z,17.63
2018-03-24T16:42:58.497Z,22.50
2018-03-24T16:45:26.068Z,20.07
2018-03-24T16:47:53.708Z,17.40
2018-03-24T16:50:21.245Z,46.37
2018-03-24T16:52:48.816Z,53.03
2018-03-24T16:55:16.425Z,19.60
2018-03-24T16:57:43.943Z,19.17
2018-03-24T17:00:11.500Z,18.70
2018-03-24T17:02:39.865Z,21.27
2018-03-24T17:05:07.411Z,16.03
2018-03-24T17:07:34.947Z,18.47
2018-03-24T17:10:02.512Z,16.67
2018-03-24T17:12:30.133Z,15.63
2018-03-24T17:14:57.681Z,18.00
2018-03-24T17:17:25.264Z,28.83
2018-03-24T17:19:52.829Z,20.93
2018-03-24T17:22:20.367Z,27.33
2018-03-24T17:24:47.903Z,23.63
2018-03-24T17:27:15.463Z,95.20
2018-03-24T17:29:43.082Z,41.40
2018-03-24T17:32:10.654Z,24.27
2018-03-24T17:34:38.208Z,17.13
2018-03-24T17:37:05.768Z,14.37
2018-03-24T17:39:33.316Z,15.50
2018-03-24T17:42:00.978Z,13.20
2018-03-24T17:44:28.655Z,16.77
2018-03-24T17:46:56.904Z,14.33
2018-03-24T17:49:24.436Z,16.73
2018-03-24T17:51:51.988Z,49.53
2018-03-24T17:54:19.568Z,24.00
2018-03-24T17:56:47.888Z,14.13
2018-03-24T17:59:15.425Z,12.17
2018-03-24T18:01:43.718Z,13.03
2018-03-24T18:04:11.332Z,14.27
2018-03-24T18:06:39.013Z,14.73
2018-03-24T18:09:06.554Z,11.27
2018-03-24T18:11:34.104Z,13.70
2018-03-24T18:14:01.786Z,12.17
2018-03-24T18:16:29.332Z,14.07
2018-03-24T18:18:56.890Z,14.37
2018-03-24T18:21:24.550Z,12.23
2018-03-24T18:23:52.093Z,13.30
2018-03-24T18:26:19.702Z,11.67
2018-03-24T18:28:47.258Z,13.40
2018-03-24T18:31:14.825Z,13.13
2018-03-24T18:33:42.392Z,13.90
2018-03-24T18:36:10.011Z,10.07
2018-03-24T18:38:37.567Z,13.57
2018-03-24T18:41:05.096Z,11.90
2018-03-24T18:43:32.779Z,14.97
2018-03-24T18:46:00.343Z,12.30
2018-03-24T18:48:27.894Z,11.88
2018-03-24T18:50:55.446Z,10.73
2018-03-24T18:53:22.980Z,12.85
2018-03-24T18:55:51.318Z,13.95
2018-03-24T18:58:18.889Z,13.60
2018-03-24T19:00:46.471Z,11.25
2018-03-24T19:03:14.024Z,10.02
2018-03-24T19:05:41.598Z,12.25
2018-03-24T19:08:09.188Z,13.57
2018-03-24T19:10:36.715Z,13.75
2018-03-24T19:13:04.263Z,13.27
2018-03-24T19:15:31.807Z,15.10
2018-03-24T19:18:00.174Z,13.38
2018-03-24T19:20:27.786Z,12.23
2018-03-24T19:22:55.323Z,14.40
2018-03-24T19:25:23.640Z,12.30
2018-03-24T19:27:51.213Z,13.15
2018-03-24T19:30:18.823Z,13.15
2018-03-24T19:32:46.352Z,11.40
2018-03-24T19:35:13.932Z,15.90
2018-03-24T19:37:41.491Z,12.68
2018-03-24T19:40:09.031Z,14.30
2018-03-24T19:42:36.571Z,14.25
2018-03-24T19:45:04.926Z,13.32
2018-03-24T19:47:32.757Z,14.15
2018-03-24T19:50:00.302Z,16.15
2018-03-24T19:52:27.931Z,13.62
2018-03-24T19:54:55.441Z,15.15
2018-03-24T19:57:23.038Z,41.45
2018-03-24T19:59:50.593Z,66.90
2018-03-24T20:02:18.220Z,46.45
2018-03-24T20:04:46.534Z,25.27
2018-03-24T20:07:15.566Z,16.40
2018-03-24T20:09:43.137Z,14.30
2018-03-24T20:12:10.727Z,16.23
2018-03-24T20:14:39.317Z,15.80
2018-03-24T20:17:06.888Z,19.65
2018-03-24T20:19:36.119Z,17.02
2018-03-24T20:22:03.693Z,16.20
2018-03-24T20:24:31.267Z,16.40
2018-03-24T20:26:58.844Z,17.02
2018-03-24T20:29:27.169Z,18.55
2018-03-24T20:31:55.479Z,15.68
2018-03-24T20:34:23.032Z,15.52
2018-03-24T20:36:50.669Z,15.57
2018-03-24T20:39:18.232Z,15.63
2018-03-24T20:41:45.794Z,16.25
2018-03-24T20:44:13.403Z,16.85
2018-03-24T20:46:41.375Z,17.70
2018-03-24T20:49:08.928Z,16.48
2018-03-24T20:51:37.242Z,19.08
2018-03-24T20:54:04.804Z,16.50
2018-03-24T20:56:32.355Z,17.58
2018-03-24T20:58:59.916Z,19.27
2018-03-24T21:01:27.471Z,18.35
2018-03-24T21:03:55.791Z,16.35
2018-03-24T21:06:23.362Z,20.00
2018-03-24T21:08:50.927Z,17.17
2018-03-24T21:11:18.512Z,16.40
2018-03-24T21:13:46.066Z,15.75
2018-03-24T21:16:13.601Z,16.58
2018-03-24T21:18:41.140Z,17.02
2018-03-24T21:21:09.507Z,17.23
2018-03-24T21:23:37.109Z,16.23
2018-03-24T21:26:04.670Z,18.40
2018-03-24T21:28:32.212Z,16.98
2018-03-24T21:30:59.756Z,16.85
2018-03-24T21:33:27.300Z,19.40
2018-03-24T21:35:54.870Z,15.90
2018-03-24T21:38:23.177Z,20.20
2018-03-24T21:40:50.780Z,17.90
2018-03-24T21:43:19.136Z,16.77
2018-03-24T21:45:46.692Z,17.60
2018-03-24T21:48:14.621Z,18.12
2018-03-24T21:50:42.185Z,16.90
2018-03-24T21:53:09.711Z,18.25
2018-03-24T21:55:37.249Z,18.20
2018-03-24T21:58:04.914Z,20.02
2018-03-24T22:00:32.679Z,16.98
2018-03-24T22:03:00.992Z,18.67
2018-03-24T22:05:28.567Z,16.87
2018-03-24T22:07:56.892Z,16.45
2018-03-24T22:10:24.435Z,18.95
2018-03-24T22:12:52.013Z,18.48
2018-03-24T22:15:19.565Z,19.25
2018-03-24T22:17:47.869Z,20.48
2018-03-24T22:20:15.416Z,20.65
2018-03-24T22:22:42.976Z,20.15
2018-03-24T22:25:11.308Z,27.15
2018-03-24T22:27:38.851Z,23.67
2018-03-24T22:30:06.548Z,25.20
2018-03-24T22:32:34.095Z,23.70
2018-03-24T22:35:01.741Z,23.12
2018-03-24T22:37:29.309Z,23.17
2018-03-24T22:39:56.867Z,25.23
2018-03-24T22:42:24.412Z,24.77
2018-03-24T22:44:52.728Z,26.58
2018-03-24T22:47:20.314Z,22.73
2018-03-24T22:49:48.258Z,22.58
2018-03-24T22:52:15.970Z,24.58
2018-03-24T22:54:43.521Z,24.17
2018-03-24T22:57:11.064Z,24.63
2018-03-24T22:59:38.618Z,24.92
2018-03-24T23:02:06.371Z,22.83
2018-03-24T23:04:34.682Z,23.48
2018-03-24T23:07:02.320Z,23.98
2018-03-24T23:09:30.842Z,25.15
2018-03-24T23:11:58.398Z,26.87
2018-03-24T23:14:25.929Z,26.65
2018-03-24T23:16:53.473Z,23.83
2018-03-24T23:19:21.040Z,24.73
2018-03-24T23:21:48.610Z,25.60
2018-03-24T23:24:16.217Z,25.45
2018-03-24T23:26:44.532Z,25.25
2018-03-24T23:29:12.092Z,22.73
2018-03-24T23:31:40.037Z,25.60
2018-03-24T23:34:08.346Z,24.92
2018-03-24T23:36:35.897Z,25.08
2018-03-24T23:39:03.473Z,28.10
2018-03-24T23:41:31.043Z,25.55
2018-03-24T23:43:58.621Z,25.88
2018-03-24T23:46:26.161Z,23.50
2018-03-24T23:48:53.760Z,28.77
2018-03-24T23:51:21.308Z,23.33
2018-03-24T23:53:48.851Z,25.73
2018-03-24T23:56:16.430Z,26.17
2018-03-24T23:58:43.972Z,24.95
